createdAt,value
2023-01-29T00:01:51.882Z,102035.10
2023-01-29T00:05:41.283Z,102036.83
2023-01-29T00:09:30.457Z,102030.14
2023-01-29T00:13:26.823Z,102028.70
2023-01-29T00:17:16.302Z,102022.83
2023-01-29T00:21:24.377Z,102012.05
2023-01-29T00:25:13.475Z,102013.78
2023-01-29T00:29:04.417Z,102012.31
2023-01-29T00:32:56.878Z,102005.16
2023-01-29T00:36:46.289Z,101990.14
2023-01-29T00:40:35.676Z,101992.93
2023-01-29T00:44:26.383Z,101995.19
2023-01-29T00:48:14.650Z,101996.92
2023-01-29T00:52:13.947Z,101991.67
2023-01-29T00:56:04.292Z,101991.27
2023-01-29T00:59:52.627Z,101983.95
2023-01-29T01:04:01.300Z,101984.95
2023-01-29T01:07:51.514Z,101983.88
2023-01-29T01:12:02.008Z,101988.27
2023-01-29T01:15:53.038Z,101993.77
2023-01-29T01:19:40.999Z,101994.55
2023-01-29T01:23:30.088Z,101992.08
2023-01-29T01:26:58.403Z,101992.80
2023-01-29T01:30:46.309Z,101996.04
2023-01-29T01:34:34.671Z,101991.20
2023-01-29T01:38:22.057Z,101984.36
2023-01-29T01:42:15.567Z,101980.00
2023-01-29T01:46:16.745Z,101978.70
2023-01-29T01:50:07.928Z,101985.39
2023-01-29T01:53:55.828Z,101992.13
2023-01-29T01:57:44.964Z,101985.95
2023-01-29T02:01:32.901Z,101981.24
2023-01-29T02:05:19.487Z,101982.16
2023-01-29T02:09:06.319Z,101973.93
2023-01-29T02:12:54.135Z,101975.33
2023-01-29T02:16:41.497Z,101973.73
2023-01-29T02:20:27.178Z,101982.43
2023-01-29T02:26:11.807Z,101979.24
2023-01-29T02:30:43.921Z,101983.00
2023-01-29T02:35:13.997Z,101984.42
2023-01-29T02:39:48.348Z,101986.38
2023-01-29T02:44:33.422Z,101989.77
2023-01-29T02:49:02.814Z,101969.55
2023-01-29T02:53:34.841Z,101972.13
2023-01-29T02:58:05.790Z,101967.80
2023-01-29T03:02:18.984Z,101967.39
2023-01-29T03:06:51.367Z,101968.63
2023-01-29T03:11:20.484Z,101972.92
2023-01-29T03:15:49.686Z,101959.42
2023-01-29T03:20:15.633Z,101947.98
2023-01-29T03:24:42.912Z,101949.80
2023-01-29T03:28:56.979Z,101948.13
2023-01-29T03:32:56.429Z,101938.83
2023-01-29T03:37:16.986Z,101930.80
2023-01-29T03:41:46.550Z,101925.77
2023-01-29T03:46:08.080Z,101917.27
2023-01-29T03:50:46.180Z,101907.59
2023-01-29T03:56:04.695Z,101894.33
2023-01-29T04:00:37.930Z,101896.98
2023-01-29T04:05:01.193Z,101891.77
2023-01-29T04:09:31.519Z,101888.36
2023-01-29T04:13:59.683Z,101886.89
2023-01-29T04:18:08.465Z,101878.59
2023-01-29T04:22:44.744Z,101867.81
2023-01-29T04:27:30.563Z,101864.57
2023-01-29T04:31:42.264Z,101858.34
2023-01-29T04:36:09.458Z,101850.23
2023-01-29T04:40:27.872Z,101837.48
2023-01-29T04:44:56.679Z,101837.20
2023-01-29T04:49:29.978Z,101840.20
2023-01-29T04:54:00.138Z,101824.41
2023-01-29T04:58:27.697Z,101824.63
2023-01-29T05:02:43.579Z,101808.91
2023-01-29T05:07:11.269Z,101805.89
2023-01-29T05:11:20.028Z,101812.80
2023-01-29T05:15:50.437Z,101820.98
2023-01-29T05:20:18.475Z,101821.60
2023-01-29T05:24:47.419Z,101817.02
2023-01-29T05:29:14.928Z,101809.45
2023-01-29T05:33:24.231Z,101810.15
2023-01-29T05:37:52.339Z,101815.42
2023-01-29T05:42:20.673Z,101807.73
2023-01-29T05:46:55.099Z,101807.97
2023-01-29T05:51:23.757Z,101811.70
2023-01-29T05:55:33.641Z,101818.27
2023-01-29T06:00:01.460Z,101822.37
2023-01-29T06:04:26.051Z,101828.15
2023-01-29T06:08:34.511Z,101826.52
2023-01-29T06:12:43.165Z,101821.66
2023-01-29T06:17:11.519Z,101831.69
2023-01-29T06:21:34.786Z,101841.19
2023-01-29T06:26:02.858Z,101845.48
2023-01-29T06:30:28.002Z,101842.54
2023-01-29T06:34:56.350Z,101836.75
2023-01-29T06:39:04.362Z,101836.09
2023-01-29T06:43:17.098Z,101849.34
2023-01-29T06:47:44.963Z,101863.92
2023-01-29T06:52:13.992Z,101851.95
2023-01-29T06:56:42.509Z,101856.43
2023-01-29T07:01:11.099Z,101850.67
2023-01-29T07:05:21.273Z,101852.53
2023-01-29T07:09:49.338Z,101846.21
2023-01-29T07:14:17.510Z,101839.67
2023-01-29T07:18:45.374Z,101836.41
2023-01-29T07:23:15.276Z,101825.69
2023-01-29T07:27:43.788Z,101817.83
2023-01-29T07:31:52.286Z,101815.75
2023-01-29T07:36:19.990Z,101809.92
2023-01-29T07:40:36.141Z,101799.36
2023-01-29T07:45:00.158Z,101797.09
2023-01-29T07:49:27.954Z,101793.16
2023-01-29T07:53:56.388Z,101788.34
2023-01-29T07:58:24.499Z,101787.69
2023-01-29T08:02:53.741Z,101800.98
2023-01-29T08:07:22.984Z,101809.05
2023-01-29T08:11:51.230Z,101813.11
2023-01-29T08:16:04.018Z,101818.33
2023-01-29T08:20:14.272Z,101828.36
2023-01-29T08:24:53.746Z,101834.02
2023-01-29T08:29:11.217Z,101820.60
2023-01-29T08:33:39.588Z,101818.42
2023-01-29T08:38:07.798Z,101812.34
2023-01-29T08:42:36.123Z,101801.45
2023-01-29T08:47:04.892Z,101795.61
2023-01-29T08:51:33.273Z,101794.87
2023-01-29T08:55:41.092Z,101776.62
2023-01-29T09:00:09.479Z,101769.77
2023-01-29T09:04:37.779Z,101776.97
2023-01-29T09:09:07.209Z,101777.59
2023-01-29T09:13:38.451Z,101776.90
2023-01-29T09:18:06.873Z,101772.27
2023-01-29T09:22:35.231Z,101770.61
2023-01-29T09:27:03.707Z,101779.98
2023-01-29T09:31:32.197Z,101781.02
2023-01-29T09:36:00.821Z,101775.92
2023-01-29T09:40:29.131Z,101778.17
2023-01-29T09:45:13.249Z,101779.80
2023-01-29T09:49:41.749Z,101784.78
2023-01-29T09:54:18.819Z,101775.64
2023-01-29T09:58:47.319Z,101759.85
2023-01-29T10:03:24.259Z,101761.20
2023-01-29T10:07:53.945Z,101769.10
2023-01-29T10:12:20.936Z,101764.05
2023-01-29T10:16:29.651Z,101762.15
2023-01-29T10:21:10.816Z,101748.50
2023-01-29T10:25:44.850Z,101733.98
2023-01-29T10:30:13.833Z,101728.17
2023-01-29T10:34:57.004Z,101724.73
2023-01-29T10:39:28.799Z,101715.38
2023-01-29T10:43:57.014Z,101711.04
2023-01-29T10:48:37.334Z,101703.00
2023-01-29T10:53:07.777Z,101697.33
2023-01-29T10:57:45.052Z,101692.44
2023-01-29T11:02:13.907Z,101675.17
2023-01-29T11:06:50.532Z,101668.95
2023-01-29T11:11:20.134Z,101666.02
2023-01-29T11:15:29.386Z,101661.89
2023-01-29T11:19:58.022Z,101658.59
2023-01-29T11:24:28.610Z,101659.29
2023-01-29T11:28:56.852Z,101663.14
2023-01-29T11:33:25.391Z,101658.65
2023-01-29T11:38:05.613Z,101637.77
2023-01-29T11:42:34.787Z,101638.98
2023-01-29T11:47:04.242Z,101631.20
2023-01-29T11:51:36.509Z,101617.00
2023-01-29T11:56:24.459Z,101601.71
2023-01-29T12:01:09.156Z,101593.55
2023-01-29T12:05:40.906Z,101591.50
2023-01-29T12:10:10.900Z,101586.02
2023-01-29T12:14:39.458Z,101571.29
2023-01-29T12:18:58.021Z,101575.48
2023-01-29T12:23:26.424Z,101573.37
2023-01-29T12:27:53.845Z,101576.61
2023-01-29T12:32:37.916Z,101574.91
2023-01-29T12:37:06.351Z,101566.59
2023-01-29T12:41:38.415Z,101563.23
2023-01-29T12:46:06.933Z,101561.02
2023-01-29T12:50:38.198Z,101551.83
2023-01-29T13:00:45.065Z,101546.73
2023-01-29T13:04:13.585Z,101545.38
2023-01-29T13:07:34.916Z,101543.98
2023-01-29T13:11:06.048Z,101546.85
2023-01-29T13:14:46.849Z,101542.69
2023-01-29T13:18:19.609Z,101533.20
2023-01-29T13:21:56.452Z,101521.33
2023-01-29T13:25:35.934Z,101516.98
2023-01-29T13:29:25.071Z,101508.73
2023-01-29T13:32:58.679Z,101510.89
2023-01-29T13:36:38.885Z,101513.82
2023-01-29T13:39:59.522Z,101510.71
2023-01-29T13:43:46.223Z,101513.98
2023-01-29T13:47:05.833Z,101518.31
2023-01-29T13:50:59.754Z,101517.00
2023-01-29T13:54:51.140Z,101513.19
2023-01-29T13:58:29.878Z,101512.39
2023-01-29T14:02:28.271Z,101509.58
2023-01-29T14:06:34.174Z,101512.00
2023-01-29T14:10:31.591Z,101506.15
2023-01-29T14:13:45.061Z,101502.33
2023-01-29T14:17:19.899Z,101499.84
2023-01-29T14:21:20.155Z,101496.34
2023-01-29T14:25:02.607Z,101494.53
2023-01-29T14:28:52.870Z,101501.10
2023-01-29T14:32:51.407Z,101498.52
2023-01-29T14:36:13.743Z,101489.12
2023-01-29T14:39:57.901Z,101487.60
2023-01-29T14:43:37.332Z,101489.96
2023-01-29T14:47:14.587Z,101488.77
2023-01-29T14:51:09.730Z,101483.23
2023-01-29T14:54:44.212Z,101476.17
2023-01-29T14:57:58.252Z,101475.66
2023-01-29T15:01:30.820Z,101472.92
2023-01-29T15:05:21.721Z,101465.96
2023-01-29T15:09:23.215Z,101466.48
2023-01-29T15:13:15.866Z,101462.98
2023-01-29T15:16:39.187Z,101457.19
2023-01-29T15:20:26.999Z,101453.83
2023-01-29T15:23:54.935Z,101455.60
2023-01-29T15:27:42.899Z,101453.18
2023-01-29T15:31:32.239Z,101446.40
2023-01-29T15:35:10.161Z,101452.16
2023-01-29T15:38:41.097Z,101448.68
2023-01-29T15:42:17.711Z,101448.78
2023-01-29T15:45:28.530Z,101450.71
2023-01-29T15:48:57.944Z,101450.34
2023-01-29T15:52:26.273Z,101442.27
2023-01-29T15:55:53.498Z,101439.80
2023-01-29T15:59:39.924Z,101444.65
2023-01-29T16:03:22.012Z,101440.69
2023-01-29T16:07:09.571Z,101437.09
2023-01-29T16:10:44.647Z,101438.11
2023-01-29T16:13:42.187Z,101435.50
2023-01-29T16:17:18.815Z,101435.15
2023-01-29T16:20:49.801Z,101429.89
2023-01-29T16:24:16.552Z,101427.28
2023-01-29T16:27:33.169Z,101416.36
2023-01-29T16:31:14.157Z,101414.12
2023-01-29T16:35:18.430Z,101413.81
2023-01-29T16:38:46.241Z,101413.23
2023-01-29T16:42:17.855Z,101414.52
2023-01-29T16:45:56.743Z,101413.97
2023-01-29T16:49:35.855Z,101402.30
2023-01-29T16:53:36.072Z,101400.66
2023-01-29T16:57:12.104Z,101400.33
2023-01-29T17:00:02.583Z,101395.14
2023-01-29T17:03:12.109Z,101388.64
2023-01-29T17:06:56.736Z,101386.20
2023-01-29T17:10:24.400Z,101376.46
2023-01-29T17:14:12.731Z,101376.48
2023-01-29T17:18:10.635Z,101370.73
2023-01-29T17:21:31.951Z,101374.23
2023-01-29T17:25:04.748Z,101371.17
2023-01-29T17:28:25.637Z,101365.98
2023-01-29T17:31:56.359Z,101365.35
2023-01-29T17:35:17.533Z,101364.33
2023-01-29T17:38:35.151Z,101360.61
2023-01-29T17:42:16.733Z,101356.52
2023-01-29T17:45:35.793Z,101351.35
2023-01-29T17:49:06.095Z,101351.21
2023-01-29T17:52:41.894Z,101348.17
2023-01-29T17:56:19.838Z,101346.26
2023-01-29T17:59:52.555Z,101335.38
2023-01-29T18:03:29.680Z,101335.61
2023-01-29T18:06:58.823Z,101325.60
2023-01-29T18:10:40.758Z,101321.52
2023-01-29T18:14:14.116Z,101316.95
2023-01-29T18:17:39.470Z,101314.61
2023-01-29T18:21:11.551Z,101317.69
2023-01-29T18:24:24.767Z,101325.77
2023-01-29T18:27:54.522Z,101318.10
2023-01-29T18:31:14.604Z,101313.28
2023-01-29T18:34:56.724Z,101311.34
2023-01-29T18:38:30.549Z,101304.73
2023-01-29T18:42:11.114Z,101291.55
2023-01-29T18:45:22.112Z,101285.77
2023-01-29T18:48:53.712Z,101277.62
2023-01-29T18:52:31.109Z,101269.70
2023-01-29T18:56:09.547Z,101260.33
2023-01-29T18:59:48.831Z,101258.95
2023-01-29T19:02:33.897Z,101258.52
2023-01-29T19:06:14.435Z,101251.81
2023-01-29T19:09:32.475Z,101252.47
2023-01-29T19:12:08.434Z,101251.69
2023-01-29T19:15:21.925Z,101253.53
2023-01-29T19:18:46.255Z,101250.27
2023-01-29T19:22:09.028Z,101242.10
2023-01-29T19:25:54.970Z,101238.77
2023-01-29T19:29:35.542Z,101237.23
2023-01-29T19:32:50.940Z,101234.65
2023-01-29T19:36:02.781Z,101233.08
2023-01-29T19:39:19.040Z,101227.77
2023-01-29T19:42:43.079Z,101225.38
2023-01-29T19:46:28.911Z,101217.98
2023-01-29T19:49:51.370Z,101219.64
2023-01-29T19:53:06.230Z,101217.45
2023-01-29T19:56:08.237Z,101211.53
2023-01-29T19:59:49.374Z,101207.17
2023-01-29T20:03:32.140Z,101201.73
2023-01-29T20:07:00.380Z,101198.36
2023-01-29T20:10:32.323Z,101194.64
2023-01-29T20:14:10.673Z,101188.23
2023-01-29T20:17:59.146Z,101182.43
2023-01-29T20:20:59.264Z,101185.59
2023-01-29T20:24:21.632Z,101178.31
2023-01-29T20:27:47.160Z,101179.17
2023-01-29T20:31:36.242Z,101178.05
2023-01-29T20:34:51.388Z,101171.58
2023-01-29T20:38:39.596Z,101167.35
2023-01-29T20:41:59.601Z,101159.79
2023-01-29T20:45:23.431Z,101155.05
2023-01-29T20:48:46.470Z,101150.04
2023-01-29T20:52:03.444Z,101143.16
2023-01-29T20:55:46.122Z,101140.23
2023-01-29T20:59:34.906Z,101132.08
2023-01-29T21:03:12.078Z,101124.88
2023-01-29T21:06:43.738Z,101110.86
2023-01-29T21:10:23.680Z,101105.55
2023-01-29T21:13:58.907Z,101100.07
2023-01-29T21:17:40.575Z,101092.88
2023-01-29T21:21:28.190Z,101083.59
2023-01-29T21:24:42.457Z,101085.42
2023-01-29T21:28:13.516Z,101081.48
2023-01-29T21:32:05.127Z,101080.16
2023-01-29T21:35:21.267Z,101071.48
2023-01-29T21:38:50.861Z,101067.75
2023-01-29T21:42:37.464Z,101062.35
2023-01-29T21:46:18.519Z,101050.63
2023-01-29T21:49:56.777Z,101042.86
2023-01-29T21:53:00.764Z,101031.42
2023-01-29T21:56:17.701Z,101031.56
2023-01-29T22:00:05.397Z,101022.15
2023-01-29T22:03:53.199Z,101022.25
2023-01-29T22:07:32.736Z,101014.77
2023-01-29T22:11:20.582Z,101003.35
2023-01-29T22:14:41.185Z,100991.81
2023-01-29T22:18:01.951Z,100992.60
2023-01-29T22:21:12.228Z,100984.90
2023-01-29T22:24:50.368Z,100973.31
2023-01-29T22:28:29.924Z,100975.33
2023-01-29T22:31:31.834Z,100961.33
2023-01-29T22:35:20.725Z,100946.38
2023-01-29T22:38:52.516Z,100929.89
2023-01-29T22:42:31.405Z,100924.89
2023-01-29T22:46:10.216Z,100919.16
2023-01-29T22:49:57.921Z,100911.61
2023-01-29T22:53:40.849Z,100904.98
2023-01-29T22:57:28.813Z,100898.33
2023-01-29T23:01:06.010Z,100888.48
2023-01-29T23:04:09.355Z,100874.38
2023-01-29T23:07:57.455Z,100872.11
2023-01-29T23:11:35.362Z,100858.98
2023-01-29T23:14:58.385Z,100854.84
2023-01-29T23:18:38.896Z,100846.51
2023-01-29T23:22:17.559Z,100840.54
2023-01-29T23:25:56.866Z,100832.55
2023-01-29T23:29:43.429Z,100829.79
2023-01-29T23:33:22.588Z,100819.44
2023-01-29T23:37:10.460Z,100805.09
2023-01-29T23:40:43.597Z,100799.73
2023-01-29T23:43:52.069Z,100785.93
2023-01-29T23:47:39.952Z,100778.41
2023-01-29T23:50:52.228Z,100771.88
2023-01-29T23:54:24.657Z,100755.02
2023-01-29T23:57:54.228Z,100750.30
